createdAt,value
2023-05-13T00:00:15.253Z,100229.17
2023-05-13T00:03:04.494Z,100225.64
2023-05-13T00:05:35.613Z,100223.69
2023-05-13T00:08:33.947Z,100221.45
2023-05-13T00:11:08.368Z,100226.21
2023-05-13T00:13:41.305Z,100231.77
2023-05-13T00:16:11.943Z,100232.07
2023-05-13T00:18:43.935Z,100234.05
2023-05-13T00:21:25.361Z,100233.67
2023-05-13T00:24:05.933Z,100234.03
2023-05-13T00:26:34.780Z,100232.30
2023-05-13T00:29:03.331Z,100231.48
2023-05-13T00:31:33.070Z,100232.52
2023-05-13T00:34:24.808Z,100232.84
2023-05-13T00:36:56.716Z,100235.42
2023-05-13T00:39:29.074Z,100233.73
2023-05-13T00:42:03.934Z,100238.68
2023-05-13T00:44:44.758Z,100241.91
2023-05-13T00:47:19.725Z,100241.86
2023-05-13T00:49:50.404Z,100243.45
2023-05-13T00:52:19.229Z,100240.50
2023-05-13T00:54:50.127Z,100240.68
2023-05-13T00:57:19.862Z,100244.59
2023-05-13T00:59:56.574Z,100246.50
2023-05-13T01:02:35.660Z,100245.75
2023-05-13T01:05:39.191Z,100248.46
2023-05-13T01:08:49.209Z,100251.05
2023-05-13T01:11:41.134Z,100251.16
2023-05-13T01:14:32.772Z,100255.86
2023-05-13T01:17:32.982Z,100254.98
2023-05-13T01:20:11.878Z,100258.70
2023-05-13T01:22:43.242Z,100261.37
2023-05-13T01:25:12.151Z,100262.04
2023-05-13T01:27:48.652Z,100262.91
2023-05-13T01:30:17.935Z,100259.68
2023-05-13T01:32:46.856Z,100256.35
2023-05-13T01:35:19.334Z,100258.59
2023-05-13T01:37:52.859Z,100259.86
2023-05-13T01:40:35.055Z,100255.73
2023-05-13T01:43:07.915Z,100259.27
2023-05-13T01:45:38.908Z,100256.51
2023-05-13T01:48:13.479Z,100259.29
2023-05-13T01:50:42.507Z,100259.27
2023-05-13T01:53:11.193Z,100254.64
2023-05-13T01:56:06.007Z,100257.90
2023-05-13T01:58:34.658Z,100264.04
2023-05-13T02:01:41.548Z,100263.11
2023-05-13T02:04:10.680Z,100261.66
2023-05-13T02:06:51.324Z,100261.31
2023-05-13T02:09:20.110Z,100259.20
2023-05-13T02:11:48.914Z,100258.09
2023-05-13T02:14:22.596Z,100264.19
2023-05-13T02:16:51.299Z,100263.77
2023-05-13T02:19:40.340Z,100260.11
2023-05-13T02:22:11.843Z,100265.84
2023-05-13T02:24:42.584Z,100261.91
2023-05-13T02:27:16.361Z,100262.27
2023-05-13T02:29:44.724Z,100264.55
2023-05-13T02:32:22.586Z,100265.30
2023-05-13T02:34:57.421Z,100266.04
2023-05-13T02:37:28.420Z,100263.85
2023-05-13T02:39:57.303Z,100264.27
2023-05-13T02:42:25.477Z,100260.98
2023-05-13T02:45:02.468Z,100263.05
2023-05-13T02:47:41.031Z,100263.54
2023-05-13T02:50:10.368Z,100265.90
2023-05-13T02:52:56.429Z,100266.15
2023-05-13T02:55:25.040Z,100269.34
2023-05-13T02:57:54.031Z,100266.01
2023-05-13T03:00:26.204Z,100269.08
2023-05-13T03:02:55.101Z,100267.71
2023-05-13T03:05:35.999Z,100265.09
2023-05-13T03:08:09.757Z,100266.23
2023-05-13T03:10:45.016Z,100265.60
2023-05-13T03:13:13.602Z,100267.36
2023-05-13T03:15:45.197Z,100265.31
2023-05-13T03:18:16.691Z,100268.15
2023-05-13T03:20:50.856Z,100265.42
2023-05-13T03:23:21.616Z,100268.32
2023-05-13T03:25:49.987Z,100268.86
2023-05-13T03:28:18.923Z,100272.50
2023-05-13T03:30:47.254Z,100276.15
2023-05-13T03:33:18.383Z,100273.91
2023-05-13T03:35:51.283Z,100277.34
2023-05-13T03:38:20.017Z,100276.12
2023-05-13T03:40:48.161Z,100276.00
2023-05-13T03:43:17.290Z,100276.42
2023-05-13T03:45:52.334Z,100279.46
2023-05-13T03:48:21.410Z,100279.59
2023-05-13T03:51:21.229Z,100281.28
2023-05-13T03:53:55.748Z,100279.14
2023-05-13T03:56:26.705Z,100283.95
2023-05-13T03:59:09.891Z,100286.53
2023-05-13T04:01:41.130Z,100288.73
2023-05-13T04:04:14.833Z,100288.14
2023-05-13T04:06:58.499Z,100292.60
2023-05-13T04:09:27.093Z,100292.44
2023-05-13T04:12:05.335Z,100295.40
2023-05-13T04:14:34.677Z,100298.23
2023-05-13T04:17:06.100Z,100296.72
2023-05-13T04:19:37.861Z,100296.80
2023-05-13T04:22:06.208Z,100293.07
2023-05-13T04:24:35.508Z,100296.23
2023-05-13T04:27:03.883Z,100297.10
2023-05-13T04:29:33.001Z,100298.23
2023-05-13T04:32:07.907Z,100300.91
2023-05-13T04:34:36.443Z,100298.20
2023-05-13T04:37:16.484Z,100301.35
2023-05-13T04:39:48.929Z,100304.73
2023-05-13T04:42:24.976Z,100301.03
2023-05-13T04:44:53.207Z,100304.17
2023-05-13T04:47:31.384Z,100302.70
2023-05-13T04:50:02.256Z,100303.79
2023-05-13T04:52:52.651Z,100299.86
2023-05-13T04:55:21.272Z,100304.63
2023-05-13T04:57:58.817Z,100303.50
2023-05-13T05:00:30.021Z,100305.89
2023-05-13T05:03:19.083Z,100309.02
2023-05-13T05:05:48.146Z,100312.17
2023-05-13T05:08:46.310Z,100310.13
2023-05-13T05:11:27.118Z,100311.27
2023-05-13T05:14:13.192Z,100313.18
2023-05-13T05:17:07.924Z,100316.70
2023-05-13T05:19:50.613Z,100319.89
2023-05-13T05:22:19.967Z,100318.86
2023-05-13T05:25:11.869Z,100323.10
2023-05-13T05:31:04.353Z,100322.23
2023-05-13T05:31:31.381Z,100326.40
2023-05-13T05:34:01.298Z,100331.34
2023-05-13T05:36:55.095Z,100327.20
2023-05-13T05:39:23.363Z,100329.09
2023-05-13T05:41:51.580Z,100333.73
2023-05-13T05:44:26.741Z,100338.54
2023-05-13T05:46:55.463Z,100334.60
2023-05-13T05:49:25.814Z,100339.89
2023-05-13T05:51:56.243Z,100338.88
2023-05-13T05:54:24.880Z,100341.52
2023-05-13T05:56:55.767Z,100341.45
2023-05-13T05:59:36.016Z,100339.26
2023-05-13T06:02:05.208Z,100337.88
2023-05-13T06:04:33.439Z,100333.69
2023-05-13T06:07:01.921Z,100336.51
2023-05-13T06:09:33.328Z,100336.83
2023-05-13T06:12:02.276Z,100335.45
2023-05-13T06:14:30.576Z,100336.14
2023-05-13T06:17:08.104Z,100329.11
2023-05-13T06:19:36.688Z,100330.98
2023-05-13T06:22:10.091Z,100331.83
2023-05-13T06:24:39.344Z,100329.21
2023-05-13T06:27:08.293Z,100327.81
2023-05-13T06:29:36.598Z,100327.77
2023-05-13T06:32:06.032Z,100327.92
2023-05-13T06:34:34.291Z,100330.20
2023-05-13T06:37:12.396Z,100329.04
2023-05-13T06:39:41.265Z,100335.78
2023-05-13T06:42:09.649Z,100332.23
2023-05-13T06:44:38.021Z,100336.10
2023-05-13T06:47:06.950Z,100330.25
2023-05-13T06:49:35.771Z,100333.13
2023-05-13T06:52:09.031Z,100337.33
2023-05-13T06:54:38.152Z,100338.61
2023-05-13T06:57:15.385Z,100332.83
2023-05-13T06:59:45.206Z,100330.13
2023-05-13T07:02:13.867Z,100334.44
2023-05-13T07:04:42.099Z,100332.22
2023-05-13T07:07:10.938Z,100331.53
2023-05-13T07:09:39.219Z,100327.64
2023-05-13T07:12:07.861Z,100323.54
2023-05-13T07:14:36.318Z,100324.91
2023-05-13T07:17:05.148Z,100316.64
2023-05-13T07:19:38.957Z,100316.95
2023-05-13T07:22:07.671Z,100314.99
2023-05-13T07:24:37.024Z,100318.63
2023-05-13T07:27:05.671Z,100318.42
2023-05-13T07:29:34.286Z,100316.44
2023-05-13T07:32:23.360Z,100318.34
2023-05-13T07:34:52.306Z,100314.86
2023-05-13T07:37:20.480Z,100308.74
2023-05-13T07:39:51.439Z,100314.53
2023-05-13T07:42:20.237Z,100308.23
2023-05-13T07:44:48.510Z,100305.84
2023-05-13T07:47:16.932Z,100302.71
2023-05-13T07:49:45.255Z,100299.96
2023-05-13T07:52:14.056Z,100303.05
2023-05-13T07:54:42.577Z,100297.40
2023-05-13T07:57:11.018Z,100298.52
2023-05-13T07:59:44.554Z,100297.96
2023-05-13T08:02:13.285Z,100293.27
2023-05-13T08:04:43.846Z,100287.88
2023-05-13T08:07:12.536Z,100290.90
2023-05-13T08:09:44.135Z,100289.39
2023-05-13T08:12:15.538Z,100289.95
2023-05-13T08:14:43.987Z,100283.23
2023-05-13T08:17:12.362Z,100281.08
2023-05-13T08:19:40.725Z,100280.57
2023-05-13T08:22:09.721Z,100286.46
2023-05-13T08:24:45.895Z,100276.17
2023-05-13T08:27:14.067Z,100273.17
2023-05-13T08:29:46.042Z,100272.85
2023-05-13T08:32:17.085Z,100274.59
2023-05-13T08:34:46.087Z,100271.23
2023-05-13T08:37:19.598Z,100272.59
2023-05-13T08:39:47.973Z,100280.15
2023-05-13T08:42:23.287Z,100279.34
2023-05-13T08:45:00.718Z,100272.52
2023-05-13T08:47:56.372Z,100278.73
2023-05-13T08:50:29.157Z,100279.08
2023-05-13T08:53:03.972Z,100279.52
2023-05-13T08:55:52.507Z,100279.13
2023-05-13T08:58:43.251Z,100273.05
2023-05-13T09:01:28.889Z,100266.74
2023-05-13T09:04:02.138Z,100271.73
2023-05-13T09:06:31.701Z,100267.12
2023-05-13T09:09:03.249Z,100266.91
2023-05-13T09:11:34.899Z,100266.59
2023-05-13T09:14:21.953Z,100263.87
2023-05-13T09:16:51.117Z,100265.16
2023-05-13T09:19:19.574Z,100269.30
2023-05-13T09:21:48.222Z,100262.97
2023-05-13T09:24:22.914Z,100269.36
2023-05-13T09:26:52.279Z,100270.29
2023-05-13T09:29:26.573Z,100271.98
2023-05-13T09:32:06.998Z,100272.03
2023-05-13T09:34:35.637Z,100273.08
2023-05-13T09:37:08.335Z,100273.01
2023-05-13T09:39:41.869Z,100273.67
2023-05-13T09:42:18.056Z,100272.84
2023-05-13T09:44:47.840Z,100275.77
2023-05-13T09:47:17.131Z,100279.15
2023-05-13T09:49:57.142Z,100273.37
2023-05-13T09:52:25.360Z,100274.18
2023-05-13T09:54:58.270Z,100276.23
2023-05-13T09:57:46.350Z,100282.73
2023-05-13T10:00:24.746Z,100272.88
2023-05-13T10:02:58.196Z,100271.96
2023-05-13T10:05:26.668Z,100270.77
2023-05-13T10:07:56.159Z,100267.90
2023-05-13T10:10:27.676Z,100267.11
2023-05-13T10:13:00.426Z,100265.05
2023-05-13T10:15:29.743Z,100265.20
2023-05-13T10:18:00.315Z,100257.17
2023-05-13T10:20:29.278Z,100262.40
2023-05-13T10:22:58.507Z,100261.55
2023-05-13T10:25:28.063Z,100264.71
2023-05-13T10:28:00.236Z,100261.69
2023-05-13T10:30:32.884Z,100258.21
2023-05-13T10:33:03.340Z,100263.79
2023-05-13T10:35:38.630Z,100263.36
2023-05-13T10:38:32.909Z,100268.79
2023-05-13T10:41:15.067Z,100268.48
2023-05-13T10:43:48.626Z,100270.58
2023-05-13T10:46:19.791Z,100260.41
2023-05-13T10:48:48.888Z,100261.16
2023-05-13T10:51:18.784Z,100263.14
2023-05-13T10:53:49.980Z,100261.63
2023-05-13T10:56:24.918Z,100263.12
2023-05-13T10:59:06.819Z,100265.21
2023-05-13T11:01:43.560Z,100260.61
2023-05-13T11:04:17.811Z,100272.23
2023-05-13T11:06:48.238Z,100268.62
2023-05-13T11:09:38.591Z,100258.64
2023-05-13T11:12:15.553Z,100254.83
2023-05-13T11:14:45.214Z,100259.92
2023-05-13T11:17:14.587Z,100257.61
2023-05-13T11:19:47.257Z,100265.50
2023-05-13T11:22:19.796Z,100264.91
2023-05-13T11:25:17.323Z,100274.61
2023-05-13T11:27:48.549Z,100265.64
2023-05-13T11:30:24.889Z,100273.54
2023-05-13T11:33:08.673Z,100272.68
2023-05-13T11:35:37.283Z,100267.26
2023-05-13T11:38:08.773Z,100268.14
2023-05-13T11:40:38.587Z,100267.29
2023-05-13T11:43:08.388Z,100273.18
2023-05-13T11:45:39.689Z,100269.36
2023-05-13T11:48:24.333Z,100273.65
2023-05-13T11:50:53.288Z,100276.02
2023-05-13T11:53:28.085Z,100267.95
2023-05-13T11:56:08.737Z,100272.84
2023-05-13T11:58:37.281Z,100275.44
2023-05-13T12:01:08.753Z,100271.09
2023-05-13T12:03:38.043Z,100281.05
2023-05-13T12:06:06.708Z,100285.52
2023-05-13T12:08:35.440Z,100290.48
2023-05-13T12:11:06.553Z,100290.88
2023-05-13T12:13:38.361Z,100298.19
2023-05-13T12:16:10.722Z,100302.08
2023-05-13T12:18:42.393Z,100302.88
2023-05-13T12:21:17.495Z,100305.20
2023-05-13T12:24:05.834Z,100305.77
2023-05-13T12:26:40.112Z,100306.92
2023-05-13T12:29:11.225Z,100303.28
2023-05-13T12:32:04.312Z,100300.95
2023-05-13T12:34:34.986Z,100298.20
2023-05-13T12:37:18.388Z,100303.59
2023-05-13T12:39:49.974Z,100298.70
2023-05-13T12:42:23.631Z,100300.60
2023-05-13T12:44:57.057Z,100297.44
2023-05-13T12:47:25.876Z,100297.00
2023-05-13T12:50:03.766Z,100293.67
2023-05-13T12:52:35.749Z,100285.98
2023-05-13T12:55:05.262Z,100290.17
2023-05-13T12:57:33.708Z,100289.67
2023-05-13T13:00:02.727Z,100291.58
2023-05-13T13:02:31.243Z,100303.19
2023-05-13T13:04:59.645Z,100317.49
2023-05-13T13:07:28.158Z,100320.20
2023-05-13T13:09:56.982Z,100316.43
2023-05-13T13:12:25.634Z,100318.86
2023-05-13T13:14:58.279Z,100318.77
2023-05-13T13:17:27.529Z,100317.77
2023-05-13T13:19:56.520Z,100317.39
2023-05-13T13:22:24.959Z,100313.70
2023-05-13T13:24:53.834Z,100314.84
2023-05-13T13:27:22.054Z,100316.33
2023-05-13T13:29:50.883Z,100313.20
2023-05-13T13:32:19.022Z,100311.17
2023-05-13T13:34:47.459Z,100306.13
2023-05-13T13:37:16.252Z,100299.96
2023-05-13T13:39:44.593Z,100300.68
2023-05-13T13:42:12.917Z,100298.67
2023-05-13T13:44:41.205Z,100296.69
2023-05-13T13:47:10.721Z,100290.15
2023-05-13T13:49:48.552Z,100289.52
2023-05-13T13:52:16.899Z,100282.86
2023-05-13T13:54:45.618Z,100280.48
2023-05-13T13:57:14.923Z,100276.12
2023-05-13T13:59:44.480Z,100278.58
2023-05-13T14:02:14.584Z,100259.17
2023-05-13T14:04:42.951Z,100274.90
2023-05-13T14:07:11.642Z,100280.00
2023-05-13T14:09:42.463Z,100278.49
2023-05-13T14:12:11.264Z,100275.23
2023-05-13T14:14:39.672Z,100273.02
2023-05-13T14:17:09.045Z,100271.16
2023-05-13T14:19:37.720Z,100270.25
2023-05-13T14:22:06.073Z,100271.69
2023-05-13T14:24:34.371Z,100267.92
2023-05-13T14:27:02.680Z,100268.63
2023-05-13T14:29:31.401Z,100271.95
2023-05-13T14:32:02.222Z,100276.17
2023-05-13T14:34:31.475Z,100270.30
2023-05-13T14:37:06.472Z,100271.41
2023-05-13T14:39:34.774Z,100268.04
2023-05-13T14:42:06.531Z,100271.38
2023-05-13T14:44:35.197Z,100263.45
2023-05-13T14:47:06.651Z,100261.27
2023-05-13T14:50:00.742Z,100258.71
2023-05-13T14:52:32.883Z,100260.86
2023-05-13T14:55:01.936Z,100269.13
2023-05-13T14:57:30.856Z,100269.35
2023-05-13T15:00:00.125Z,100268.44
2023-05-13T15:02:29.586Z,100271.80
2023-05-13T15:04:58.228Z,100263.36
2023-05-13T15:07:36.994Z,100261.39
2023-05-13T15:10:05.924Z,100276.67
2023-05-13T15:12:34.717Z,100270.99
2023-05-13T15:15:26.542Z,100277.42
2023-05-13T15:17:55.431Z,100270.97
2023-05-13T15:20:24.089Z,100262.39
2023-05-13T15:22:53.061Z,100266.21
2023-05-13T15:25:21.901Z,100258.54
2023-05-13T15:27:51.445Z,100265.30
2023-05-13T15:30:20.180Z,100260.70
2023-05-13T15:32:49.368Z,100262.67
2023-05-13T15:35:18.729Z,100262.98
2023-05-13T15:37:47.206Z,100266.27
2023-05-13T15:40:15.440Z,100259.92
2023-05-13T15:42:44.089Z,100253.88
2023-05-13T15:45:12.318Z,100253.45
2023-05-13T15:47:41.187Z,100249.13
2023-05-13T15:50:11.014Z,100244.90
2023-05-13T15:52:59.517Z,100244.70
2023-05-13T15:55:28.136Z,100243.31
2023-05-13T15:57:56.672Z,100244.83
2023-05-13T16:00:25.429Z,100246.87
2023-05-13T16:02:54.088Z,100243.73
2023-05-13T16:05:22.629Z,100241.33
2023-05-13T16:07:51.594Z,100236.50
2023-05-13T16:10:21.634Z,100236.26
2023-05-13T16:12:52.828Z,100236.41
2023-05-13T16:15:21.894Z,100231.18
2023-05-13T16:17:53.035Z,100230.04
2023-05-13T16:20:22.025Z,100230.31
2023-05-13T16:22:51.286Z,100228.02
2023-05-13T16:25:19.660Z,100225.05
2023-05-13T16:27:53.663Z,100229.45
2023-05-13T16:30:22.441Z,100227.80
2023-05-13T16:32:54.682Z,100222.77
2023-05-13T16:35:26.729Z,100218.15
2023-05-13T16:37:55.170Z,100223.70
2023-05-13T16:40:24.437Z,100221.07
2023-05-13T16:42:57.117Z,100217.86
2023-05-13T16:45:27.987Z,100221.11
2023-05-13T16:47:56.318Z,100219.38
2023-05-13T16:50:25.126Z,100221.50
2023-05-13T16:52:54.868Z,100222.80
2023-05-13T16:55:26.117Z,100226.71
2023-05-13T16:57:54.262Z,100222.41
2023-05-13T17:00:26.393Z,100223.03
2023-05-13T17:02:54.925Z,100223.45
2023-05-13T17:05:26.907Z,100225.50
2023-05-13T17:07:55.581Z,100223.53
2023-05-13T17:10:24.343Z,100225.42
2023-05-13T17:13:13.799Z,100218.13
2023-05-13T17:15:51.597Z,100221.41
2023-05-13T17:18:22.507Z,100228.31
2023-05-13T17:20:50.686Z,100226.21
2023-05-13T17:23:19.040Z,100227.37
2023-05-13T17:25:49.287Z,100228.41
2023-05-13T17:28:20.922Z,100233.64
2023-05-13T17:30:49.441Z,100231.41
2023-05-13T17:33:17.737Z,100233.70
2023-05-13T17:35:46.171Z,100232.40
2023-05-13T17:38:14.630Z,100233.27
2023-05-13T17:40:43.140Z,100233.72
2023-05-13T17:43:11.317Z,100235.19
2023-05-13T17:45:39.864Z,100235.33
2023-05-13T17:48:08.297Z,100235.70
2023-05-13T17:50:36.849Z,100241.30
2023-05-13T17:53:05.874Z,100241.60
2023-05-13T17:55:34.448Z,100241.08
2023-05-13T17:58:02.941Z,100238.76
2023-05-13T18:00:31.194Z,100240.77
2023-05-13T18:02:59.638Z,100238.42
2023-05-13T18:05:32.453Z,100232.80
2023-05-13T18:08:01.223Z,100235.42
2023-05-13T18:10:31.034Z,100233.21
2023-05-13T18:12:59.436Z,100235.08
2023-05-13T18:15:27.858Z,100237.25
2023-05-13T18:17:56.636Z,100239.64
2023-05-13T18:20:34.392Z,100243.18
2023-05-13T18:23:02.961Z,100241.23
2023-05-13T18:25:32.180Z,100244.89
2023-05-13T18:28:01.534Z,100242.71
2023-05-13T18:30:31.497Z,100244.03
2023-05-13T18:33:00.215Z,100243.11
2023-05-13T18:35:31.245Z,100250.16
2023-05-13T18:37:59.468Z,100249.03
2023-05-13T18:40:28.183Z,100248.98
2023-05-13T18:42:56.652Z,100249.67
2023-05-13T18:45:25.089Z,100252.88
2023-05-13T18:47:53.641Z,100260.37
2023-05-13T18:50:25.177Z,100261.89
2023-05-13T18:52:53.611Z,100269.55
2023-05-13T18:55:22.782Z,100269.48
2023-05-13T18:57:51.785Z,100271.17
2023-05-13T19:00:20.370Z,100270.52
2023-05-13T19:02:49.582Z,100271.23
2023-05-13T19:05:20.321Z,100274.92
2023-05-13T19:07:49.439Z,100273.93
2023-05-13T19:10:17.807Z,100275.85
2023-05-13T19:12:46.147Z,100275.55
2023-05-13T19:15:21.381Z,100279.53
2023-05-13T19:18:08.398Z,100279.48
2023-05-13T19:20:49.753Z,100285.57
2023-05-13T19:23:28.037Z,100287.42
2023-05-13T19:26:19.410Z,100287.66
2023-05-13T19:28:53.721Z,100289.03
2023-05-13T19:31:33.719Z,100288.11
2023-05-13T19:34:05.580Z,100288.27
2023-05-13T19:36:58.356Z,100283.58
2023-05-13T19:39:29.649Z,100281.11
2023-05-13T19:42:00.674Z,100281.91
2023-05-13T19:44:32.472Z,100282.34
2023-05-13T19:47:07.346Z,100285.52
2023-05-13T19:49:35.503Z,100290.48
2023-05-13T19:52:04.318Z,100286.87
2023-05-13T19:54:42.181Z,100291.61
2023-05-13T19:57:23.860Z,100288.08
2023-05-13T19:59:55.095Z,100290.34
2023-05-13T20:02:23.629Z,100291.23
2023-05-13T20:04:54.978Z,100286.88
2023-05-13T20:07:40.429Z,100285.63
2023-05-13T20:10:19.137Z,100283.44
2023-05-13T20:12:47.696Z,100284.09
2023-05-13T20:15:27.193Z,100287.13
2023-05-13T20:17:56.445Z,100287.46
2023-05-13T20:20:26.249Z,100288.52
2023-05-13T20:23:15.220Z,100288.39
2023-05-13T20:25:46.825Z,100286.27
2023-05-13T20:28:15.202Z,100286.80
2023-05-13T20:31:20.319Z,100288.73
2023-05-13T20:33:49.700Z,100288.65
2023-05-13T20:36:25.924Z,100286.00
2023-05-13T20:38:54.369Z,100285.09
2023-05-13T20:41:26.225Z,100286.70
2023-05-13T20:43:54.927Z,100286.05
2023-05-13T20:46:23.535Z,100285.33
2023-05-13T20:49:13.232Z,100285.52
2023-05-13T20:51:48.534Z,100284.81
2023-05-13T20:54:24.329Z,100282.99
2023-05-13T20:56:52.504Z,100275.99
2023-05-13T20:59:20.928Z,100277.72
2023-05-13T21:02:10.197Z,100278.92
2023-05-13T21:05:01.232Z,100276.94
2023-05-13T21:07:44.757Z,100276.56
2023-05-13T21:10:18.744Z,100275.81
2023-05-13T21:12:51.770Z,100275.09
2023-05-13T21:15:27.913Z,100275.14
2023-05-13T21:17:58.843Z,100274.71
2023-05-13T21:20:27.534Z,100278.23
2023-05-13T21:22:56.239Z,100277.13
2023-05-13T21:25:25.299Z,100276.29
2023-05-13T21:27:54.059Z,100277.35
2023-05-13T21:30:22.909Z,100275.55
2023-05-13T21:32:51.390Z,100276.89
2023-05-13T21:35:22.660Z,100275.09
2023-05-13T21:37:54.012Z,100274.88
2023-05-13T21:40:34.412Z,100275.89
2023-05-13T21:43:02.654Z,100275.30
2023-05-13T21:45:30.903Z,100274.09
2023-05-13T21:48:00.973Z,100277.27
2023-05-13T21:50:29.588Z,100274.50
2023-05-13T21:52:58.163Z,100275.90
2023-05-13T21:55:36.411Z,100274.31
2023-05-13T21:58:04.717Z,100275.27
2023-05-13T22:00:33.167Z,100273.48
2023-05-13T22:03:02.187Z,100273.92
2023-05-13T22:05:44.335Z,100277.25
2023-05-13T22:08:16.583Z,100280.55
2023-05-13T22:10:45.432Z,100279.83
2023-05-13T22:13:17.144Z,100281.39
2023-05-13T22:15:45.831Z,100281.73
2023-05-13T22:18:14.939Z,100282.77
2023-05-13T22:20:46.465Z,100279.17
2023-05-13T22:23:14.826Z,100277.14
2023-05-13T22:25:43.373Z,100276.19
2023-05-13T22:28:20.947Z,100279.14
2023-05-13T22:30:51.757Z,100279.38
2023-05-13T22:33:22.593Z,100270.94
2023-05-13T22:35:57.488Z,100272.56
2023-05-13T22:38:25.916Z,100275.02
2023-05-13T22:40:54.676Z,100272.51
2023-05-13T22:43:23.190Z,100269.48
2023-05-13T22:45:52.066Z,100271.20
2023-05-13T22:48:23.501Z,100272.45
2023-05-13T22:50:57.336Z,100271.48
2023-05-13T22:53:29.394Z,100268.86
2023-05-13T22:55:58.641Z,100269.89
2023-05-13T22:58:27.073Z,100270.62
2023-05-13T23:00:58.394Z,100264.88
2023-05-13T23:03:29.437Z,100265.07
2023-05-13T23:05:57.710Z,100267.72
2023-05-13T23:08:26.219Z,100261.69
2023-05-13T23:10:54.438Z,100263.71
2023-05-13T23:13:22.933Z,100262.62
2023-05-13T23:15:55.963Z,100265.80
2023-05-13T23:18:25.128Z,100259.10
2023-05-13T23:20:55.935Z,100258.02
2023-05-13T23:23:34.744Z,100254.41
2023-05-13T23:26:14.822Z,100253.91
2023-05-13T23:29:11.527Z,100246.58
2023-05-13T23:32:08.191Z,100251.17
2023-05-13T23:34:42.744Z,100247.08
2023-05-13T23:37:15.757Z,100247.02
2023-05-13T23:39:49.729Z,100245.14
2023-05-13T23:42:17.781Z,100247.88
2023-05-13T23:44:56.896Z,100242.98
2023-05-13T23:47:33.933Z,100245.80
2023-05-13T23:50:02.709Z,100253.11
2023-05-13T23:52:30.906Z,100247.52
2023-05-13T23:55:00.977Z,100247.21
2023-05-13T23:57:31.922Z,100246.88
